SHT20A EGJB-EGLL
Flight info
| Callsign | SHT20A |
|---|---|
| Flight time | 0h 33m |
| Altitude | 19000 |
| Route | ORIST L982 ROXOG |
| Aircraft | A319/M-SDE3FGHIRWY/LB1 |
Departure
| Time | 2026-05-06 20:27 |
|---|---|
| Airport | Guernsey Airport (EGJB) |
Arrival
| Time | 2026-05-06 21:01 |
|---|---|
| Airport | London Heathrow Airport (EGLL) |
| Time | Latitude | Longitude | Altitude | Speed | Heading |
|---|---|---|---|---|---|
| 2026-05-06 19:59 | 49.43254 | -2.59684 | 325 ft | 0 kts | 177° |
| 2026-05-06 20:18 | 49.43267 | -2.59685 | 328 ft | 4 kts | 177° |
| 2026-05-06 20:18 | 49.43293 | -2.59687 | 328 ft | 4 kts | 178° |
| 2026-05-06 20:18 | 49.43320 | -2.59687 | 328 ft | 4 kts | 190° |
| 2026-05-06 20:18 | 49.43342 | -2.59676 | 324 ft | 4 kts | 213° |
| 2026-05-06 20:19 | 49.43359 | -2.59648 | 327 ft | 4 kts | 254° |
| 2026-05-06 20:19 | 49.43362 | -2.59616 | 326 ft | 0 kts | 267° |
| 2026-05-06 20:22 | 49.43362 | -2.59617 | 327 ft | 1 kts | 267° |
| 2026-05-06 20:22 | 49.43360 | -2.59673 | 324 ft | 7 kts | 267° |
| 2026-05-06 20:22 | 49.43352 | -2.59748 | 325 ft | 9 kts | 255° |
| 2026-05-06 20:22 | 49.43343 | -2.59871 | 323 ft | 16 kts | 266° |
| 2026-05-06 20:23 | 49.43338 | -2.60081 | 308 ft | 18 kts | 266° |
| 2026-05-06 20:23 | 49.43331 | -2.60331 | 294 ft | 27 kts | 268° |
| 2026-05-06 20:23 | 49.43327 | -2.60584 | 293 ft | 23 kts | 271° |
| 2026-05-06 20:23 | 49.43346 | -2.60771 | 299 ft | 15 kts | 281° |
| 2026-05-06 20:24 | 49.43362 | -2.60910 | 307 ft | 11 kts | 279° |
| 2026-05-06 20:24 | 49.43364 | -2.61009 | 311 ft | 9 kts | 268° |
| 2026-05-06 20:24 | 49.43361 | -2.61106 | 311 ft | 8 kts | 267° |
| 2026-05-06 20:24 | 49.43359 | -2.61195 | 313 ft | 8 kts | 267° |
| 2026-05-06 20:25 | 49.43358 | -2.61208 | 313 ft | 3 kts | 267° |
| 2026-05-06 20:25 | 49.43364 | -2.61260 | 313 ft | 6 kts | 295° |
| 2026-05-06 20:25 | 49.43396 | -2.61314 | 315 ft | 9 kts | 313° |
| 2026-05-06 20:25 | 49.43449 | -2.61354 | 316 ft | 11 kts | 9° |
| 2026-05-06 20:26 | 49.43468 | -2.61284 | 315 ft | 0 kts | 88° |
| 2026-05-06 20:27 | 49.43474 | -2.61013 | 311 ft | 70 kts | 87° |
| 2026-05-06 20:27 | 49.43510 | -2.59826 | 349 ft | 145 kts | 86° |
| 2026-05-06 20:27 | 49.43543 | -2.58343 | 1077 ft | 136 kts | 89° |
| 2026-05-06 20:28 | 49.43563 | -2.56852 | 1634 ft | 146 kts | 89° |
| 2026-05-06 20:28 | 49.43599 | -2.55209 | 2088 ft | 162 kts | 88° |
| 2026-05-06 20:28 | 49.43655 | -2.53309 | 2211 ft | 195 kts | 88° |
| 2026-05-06 20:28 | 49.43767 | -2.51121 | 2645 ft | 212 kts | 78° |
| 2026-05-06 20:29 | 49.44534 | -2.49166 | 3349 ft | 221 kts | 39° |
| 2026-05-06 20:29 | 49.45930 | -2.48153 | 3857 ft | 224 kts | 15° |
| 2026-05-06 20:29 | 49.47430 | -2.47564 | 3981 ft | 222 kts | 13° |
| 2026-05-06 20:29 | 49.48457 | -2.47190 | 4011 ft | 232 kts | 13° |
| 2026-05-06 20:30 | 49.50092 | -2.46603 | 4429 ft | 256 kts | 14° |
| 2026-05-06 20:30 | 49.53675 | -2.45296 | 6223 ft | 270 kts | 13° |
| 2026-05-06 20:30 | 49.55516 | -2.44607 | 7156 ft | 274 kts | 13° |
| 2026-05-06 20:31 | 49.57382 | -2.43902 | 8085 ft | 279 kts | 12° |
| 2026-05-06 20:31 | 49.59281 | -2.43181 | 9010 ft | 283 kts | 12° |
| 2026-05-06 20:31 | 49.61211 | -2.42447 | 9925 ft | 287 kts | 12° |
| 2026-05-06 20:31 | 49.63162 | -2.41703 | 10740 ft | 291 kts | 12° |
| 2026-05-06 20:32 | 49.65820 | -2.40686 | 11836 ft | 296 kts | 13° |
| 2026-05-06 20:32 | 49.67152 | -2.40172 | 12377 ft | 299 kts | 13° |
| 2026-05-06 20:32 | 49.69139 | -2.39151 | 13175 ft | 304 kts | 24° |
| 2026-05-06 20:32 | 49.70963 | -2.37397 | 13788 ft | 317 kts | 38° |
| 2026-05-06 20:33 | 49.72538 | -2.34891 | 13994 ft | 339 kts | 50° |
| 2026-05-06 20:33 | 49.74077 | -2.32052 | 14518 ft | 348 kts | 50° |
| 2026-05-06 20:33 | 49.75647 | -2.29167 | 15159 ft | 352 kts | 49° |
| 2026-05-06 20:33 | 49.77242 | -2.26253 | 15816 ft | 356 kts | 49° |
| 2026-05-06 20:34 | 49.78860 | -2.23313 | 16491 ft | 360 kts | 49° |
| 2026-05-06 20:34 | 49.80492 | -2.20345 | 17154 ft | 364 kts | 49° |
| 2026-05-06 20:34 | 49.82141 | -2.17343 | 17812 ft | 368 kts | 49° |
| 2026-05-06 20:34 | 49.83808 | -2.14302 | 18442 ft | 372 kts | 49° |
| 2026-05-06 20:35 | 49.85485 | -2.11235 | 18872 ft | 375 kts | 49° |
| 2026-05-06 20:35 | 49.87172 | -2.08143 | 18989 ft | 373 kts | 49° |
| 2026-05-06 20:35 | 49.88816 | -2.05125 | 19023 ft | 362 kts | 49° |
| 2026-05-06 20:35 | 49.90512 | -2.02266 | 19023 ft | 358 kts | 39° |
| 2026-05-06 20:36 | 49.92570 | -2.00121 | 19013 ft | 356 kts | 29° |
| 2026-05-06 20:36 | 49.94697 | -1.98154 | 19017 ft | 356 kts | 29° |
| 2026-05-06 20:36 | 49.96828 | -1.96204 | 19020 ft | 356 kts | 29° |
| 2026-05-06 20:36 | 49.98963 | -1.94252 | 19019 ft | 356 kts | 29° |
| 2026-05-06 20:37 | 50.01094 | -1.92297 | 19019 ft | 356 kts | 29° |
| 2026-05-06 20:37 | 50.03227 | -1.90344 | 19018 ft | 356 kts | 29° |
| 2026-05-06 20:37 | 50.05330 | -1.88414 | 19018 ft | 356 kts | 29° |
| 2026-05-06 20:37 | 50.07459 | -1.86449 | 19023 ft | 356 kts | 29° |
| 2026-05-06 20:38 | 50.09583 | -1.84479 | 19017 ft | 356 kts | 29° |
| 2026-05-06 20:38 | 50.11719 | -1.82496 | 19019 ft | 356 kts | 29° |
| 2026-05-06 20:38 | 50.13728 | -1.80632 | 19011 ft | 356 kts | 29° |
| 2026-05-06 20:38 | 50.15783 | -1.78726 | 19012 ft | 356 kts | 29° |
| 2026-05-06 20:39 | 50.17912 | -1.76749 | 19016 ft | 356 kts | 29° |
| 2026-05-06 20:39 | 50.20040 | -1.74772 | 19020 ft | 356 kts | 29° |
| 2026-05-06 20:39 | 50.22169 | -1.72798 | 19022 ft | 356 kts | 29° |
| 2026-05-06 20:39 | 50.24297 | -1.70818 | 19023 ft | 356 kts | 29° |
| 2026-05-06 20:40 | 50.26423 | -1.68832 | 19022 ft | 356 kts | 29° |
| 2026-05-06 20:40 | 50.28526 | -1.66869 | 19016 ft | 356 kts | 29° |
| 2026-05-06 20:40 | 50.30652 | -1.64889 | 19015 ft | 356 kts | 29° |
| 2026-05-06 20:40 | 50.32779 | -1.62905 | 19018 ft | 356 kts | 29° |
| 2026-05-06 20:41 | 50.34909 | -1.60919 | 19014 ft | 356 kts | 29° |
| 2026-05-06 20:41 | 50.37032 | -1.58936 | 19018 ft | 356 kts | 29° |
| 2026-05-06 20:41 | 50.39155 | -1.56941 | 19018 ft | 356 kts | 30° |
| 2026-05-06 20:41 | 50.41276 | -1.54938 | 19025 ft | 356 kts | 30° |
| 2026-05-06 20:42 | 50.43395 | -1.52935 | 19018 ft | 356 kts | 30° |
| 2026-05-06 20:42 | 50.45516 | -1.50936 | 19020 ft | 356 kts | 29° |
| 2026-05-06 20:42 | 50.47639 | -1.48945 | 19016 ft | 356 kts | 29° |
| 2026-05-06 20:42 | 50.49764 | -1.46954 | 19018 ft | 356 kts | 29° |
| 2026-05-06 20:43 | 50.51889 | -1.44957 | 19012 ft | 356 kts | 30° |
| 2026-05-06 20:43 | 50.54011 | -1.42957 | 19012 ft | 356 kts | 30° |
| 2026-05-06 20:43 | 50.56130 | -1.40951 | 19016 ft | 356 kts | 30° |
| 2026-05-06 20:43 | 50.58248 | -1.38941 | 19013 ft | 356 kts | 30° |
| 2026-05-06 20:44 | 50.60364 | -1.36931 | 19017 ft | 356 kts | 30° |
| 2026-05-06 20:44 | 50.62483 | -1.34916 | 19004 ft | 354 kts | 30° |
| 2026-05-06 20:44 | 50.64572 | -1.32928 | 18764 ft | 347 kts | 30° |
| 2026-05-06 20:44 | 50.66616 | -1.30982 | 18537 ft | 339 kts | 30° |
| 2026-05-06 20:45 | 50.68623 | -1.29075 | 18300 ft | 335 kts | 30° |
| 2026-05-06 20:45 | 50.70585 | -1.27211 | 18032 ft | 333 kts | 30° |
| 2026-05-06 20:45 | 50.72590 | -1.25304 | 17750 ft | 331 kts | 30° |
| 2026-05-06 20:45 | 50.74531 | -1.23456 | 17491 ft | 330 kts | 30° |
| 2026-05-06 20:46 | 50.76490 | -1.21585 | 17224 ft | 328 kts | 30° |
| 2026-05-06 20:46 | 50.78440 | -1.19718 | 16959 ft | 326 kts | 30° |
| 2026-05-06 20:46 | 50.80378 | -1.17860 | 16696 ft | 325 kts | 30° |
| 2026-05-06 20:46 | 50.82305 | -1.16011 | 16440 ft | 323 kts | 30° |
| 2026-05-06 20:47 | 50.84222 | -1.14169 | 16184 ft | 320 kts | 30° |
| 2026-05-06 20:47 | 50.86106 | -1.12357 | 15876 ft | 315 kts | 30° |
| 2026-05-06 20:47 | 50.87972 | -1.10561 | 15519 ft | 313 kts | 30° |
| 2026-05-06 20:47 | 50.89828 | -1.08773 | 15147 ft | 311 kts | 30° |
| 2026-05-06 20:48 | 50.91672 | -1.07000 | 14782 ft | 309 kts | 30° |
| 2026-05-06 20:48 | 50.93507 | -1.05236 | 14421 ft | 307 kts | 30° |
| 2026-05-06 20:48 | 50.95332 | -1.03479 | 14058 ft | 306 kts | 30° |
| 2026-05-06 20:48 | 50.97154 | -1.01719 | 13679 ft | 305 kts | 30° |
| 2026-05-06 20:49 | 50.98935 | -0.99995 | 13304 ft | 302 kts | 30° |
| 2026-05-06 20:49 | 51.00649 | -0.98087 | 12952 ft | 300 kts | 40° |
| 2026-05-06 20:49 | 51.02100 | -0.95680 | 12663 ft | 303 kts | 47° |
| 2026-05-06 20:49 | 51.03608 | -0.93372 | 12341 ft | 300 kts | 32° |
| 2026-05-06 20:50 | 51.05463 | -0.91900 | 11959 ft | 297 kts | 21° |
| 2026-05-06 20:50 | 51.07355 | -0.90633 | 11582 ft | 295 kts | 21° |
| 2026-05-06 20:50 | 51.09247 | -0.89380 | 11213 ft | 293 kts | 21° |
| 2026-05-06 20:50 | 51.11114 | -0.88146 | 10852 ft | 292 kts | 21° |
| 2026-05-06 20:51 | 51.12995 | -0.86904 | 10496 ft | 291 kts | 21° |
| 2026-05-06 20:51 | 51.14862 | -0.85717 | 10194 ft | 286 kts | 16° |
| 2026-05-06 20:51 | 51.16810 | -0.85270 | 9870 ft | 282 kts | 2° |
| 2026-05-06 20:51 | 51.18765 | -0.85119 | 9495 ft | 281 kts | 1° |
| 2026-05-06 20:52 | 51.20709 | -0.84994 | 9133 ft | 279 kts | 1° |
| 2026-05-06 20:52 | 51.22638 | -0.84877 | 8776 ft | 277 kts | 1° |
| 2026-05-06 20:52 | 51.24556 | -0.84764 | 8414 ft | 274 kts | 1° |
| 2026-05-06 20:52 | 51.26425 | -0.84657 | 8117 ft | 265 kts | 1° |
| 2026-05-06 20:53 | 51.28255 | -0.84554 | 7694 ft | 261 kts | 1° |
| 2026-05-06 20:53 | 51.30061 | -0.84456 | 7217 ft | 258 kts | 1° |
| 2026-05-06 20:53 | 51.31822 | -0.84363 | 6914 ft | 249 kts | 1° |
| 2026-05-06 20:53 | 51.33537 | -0.84275 | 6494 ft | 245 kts | 1° |
| 2026-05-06 20:54 | 51.35213 | -0.84192 | 6206 ft | 235 kts | 1° |
| 2026-05-06 20:54 | 51.36831 | -0.84114 | 5810 ft | 230 kts | 1° |
| 2026-05-06 20:54 | 51.38402 | -0.84037 | 5376 ft | 227 kts | 1° |
| 2026-05-06 20:54 | 51.39980 | -0.83965 | 4890 ft | 227 kts | 1° |
| 2026-05-06 20:55 | 51.41575 | -0.83900 | 4412 ft | 224 kts | 1° |
| 2026-05-06 20:55 | 51.43082 | -0.83845 | 4124 ft | 216 kts | 1° |
| 2026-05-06 20:55 | 51.44568 | -0.83782 | 3732 ft | 211 kts | 4° |
| 2026-05-06 20:55 | 51.45922 | -0.82995 | 3251 ft | 210 kts | 39° |
| 2026-05-06 20:56 | 51.46803 | -0.81186 | 2980 ft | 200 kts | 59° |
| 2026-05-06 20:56 | 51.47434 | -0.79296 | 2963 ft | 188 kts | 66° |
| 2026-05-06 20:56 | 51.47594 | -0.77238 | 2997 ft | 187 kts | 88° |
| 2026-05-06 20:56 | 51.47606 | -0.75163 | 2979 ft | 183 kts | 88° |
| 2026-05-06 20:57 | 51.47619 | -0.73213 | 3022 ft | 171 kts | 87° |
| 2026-05-06 20:57 | 51.47631 | -0.71339 | 2890 ft | 166 kts | 87° |
| 2026-05-06 20:57 | 51.47643 | -0.69502 | 2706 ft | 164 kts | 87° |
| 2026-05-06 20:57 | 51.47653 | -0.67700 | 2504 ft | 162 kts | 87° |
| 2026-05-06 20:58 | 51.47664 | -0.65896 | 2287 ft | 161 kts | 87° |
| 2026-05-06 20:58 | 51.47674 | -0.64111 | 2067 ft | 161 kts | 87° |
| 2026-05-06 20:58 | 51.47683 | -0.62321 | 1846 ft | 160 kts | 86° |
| 2026-05-06 20:58 | 51.47692 | -0.60548 | 1625 ft | 161 kts | 87° |
| 2026-05-06 20:59 | 51.47701 | -0.58735 | 1403 ft | 160 kts | 87° |
| 2026-05-06 20:59 | 51.47709 | -0.57049 | 1192 ft | 144 kts | 86° |
| 2026-05-06 20:59 | 51.47716 | -0.55496 | 995 ft | 134 kts | 87° |
| 2026-05-06 20:59 | 51.47723 | -0.54027 | 804 ft | 130 kts | 86° |
| 2026-05-06 21:00 | 51.47728 | -0.52592 | 639 ft | 128 kts | 87° |
| 2026-05-06 21:00 | 51.47730 | -0.51170 | 435 ft | 127 kts | 88° |
| 2026-05-06 21:00 | 51.47743 | -0.49753 | 288 ft | 126 kts | 88° |
| 2026-05-06 21:00 | 51.47752 | -0.48366 | 125 ft | 125 kts | 87° |
| 2026-05-06 21:01 | 51.47758 | -0.47086 | 89 ft | 98 kts | 88° |
| 2026-05-06 21:01 | 51.47759 | -0.46267 | 87 ft | 50 kts | 91° |
| 2026-05-06 21:01 | 51.47759 | -0.45732 | 86 ft | 46 kts | 89° |
| 2026-05-06 21:01 | 51.47713 | -0.45477 | 86 ft | 20 kts | 161° |
| 2026-05-06 21:02 | 51.47619 | -0.45467 | 86 ft | 7 kts | 182° |
| 2026-05-06 21:02 | 51.47614 | -0.45467 | 86 ft | 1 kts | 182° |
| 2026-05-06 21:02 | 51.47608 | -0.45476 | 88 ft | 3 kts | 227° |
| 2026-05-06 21:02 | 51.47593 | -0.45547 | 86 ft | 12 kts | 273° |
| 2026-05-06 21:03 | 51.47595 | -0.45694 | 88 ft | 15 kts | 270° |
| 2026-05-06 21:03 | 51.47596 | -0.45876 | 90 ft | 18 kts | 271° |
| 2026-05-06 21:03 | 51.47595 | -0.46087 | 88 ft | 21 kts | 269° |
| 2026-05-06 21:03 | 51.47595 | -0.46277 | 86 ft | 18 kts | 270° |
| 2026-05-06 21:04 | 51.47593 | -0.46499 | 86 ft | 22 kts | 269° |
| 2026-05-06 21:04 | 51.47593 | -0.46739 | 86 ft | 23 kts | 270° |
| 2026-05-06 21:04 | 51.47584 | -0.46965 | 88 ft | 15 kts | 270° |
| 2026-05-06 21:04 | 51.47583 | -0.47149 | 88 ft | 19 kts | 269° |
| 2026-05-06 21:05 | 51.47581 | -0.47395 | 86 ft | 22 kts | 270° |
| 2026-05-06 21:05 | 51.47581 | -0.47629 | 86 ft | 24 kts | 269° |
| 2026-05-06 21:05 | 51.47581 | -0.47876 | 89 ft | 25 kts | 271° |
| 2026-05-06 21:05 | 51.47580 | -0.48089 | 86 ft | 18 kts | 269° |
| 2026-05-06 21:06 | 51.47578 | -0.48289 | 90 ft | 18 kts | 269° |
| 2026-05-06 21:06 | 51.47577 | -0.48482 | 86 ft | 17 kts | 269° |
| 2026-05-06 21:06 | 51.47576 | -0.48668 | 86 ft | 16 kts | 270° |
| 2026-05-06 21:06 | 51.47575 | -0.48844 | 86 ft | 12 kts | 269° |
| 2026-05-06 21:07 | 51.47549 | -0.48954 | 88 ft | 11 kts | 210° |
| 2026-05-06 21:07 | 51.47494 | -0.48900 | 87 ft | 10 kts | 117° |
| 2026-05-06 21:07 | 51.47474 | -0.48834 | 88 ft | 5 kts | 145° |
| 2026-05-06 21:07 | 51.47434 | -0.48829 | 86 ft | 6 kts | 179° |
| 2026-05-06 21:08 | 51.47404 | -0.48829 | 86 ft | 0 kts | 179° |
| 2026-05-06 21:08 | 51.47403 | -0.48829 | 86 ft | 0 kts | 179° |